sensor_id;sensor_type;location;lat;lon;timestamp;P1;durP1;ratioP1;P2;durP2;ratioP2
70216;SDS011;65567;55.684;37.570;2023-04-06T00:00:03;6.57;;;4.25;;
70216;SDS011;65567;55.684;37.570;2023-04-06T00:02:30;11.02;;;4.43;;
70216;SDS011;65567;55.684;37.570;2023-04-06T00:04:56;7.07;;;4.03;;
70216;SDS011;65567;55.684;37.570;2023-04-06T00:07:21;6.95;;;3.83;;
70216;SDS011;65567;55.684;37.570;2023-04-06T00:09:47;7.05;;;3.83;;
70216;SDS011;65567;55.684;37.570;2023-04-06T00:12:13;9.45;;;4.43;;
70216;SDS011;65567;55.684;37.570;2023-04-06T00:14:39;5.25;;;3.58;;
70216;SDS011;65567;55.684;37.570;2023-04-06T00:17:05;7.82;;;4.40;;
70216;SDS011;65567;55.684;37.570;2023-04-06T00:19:31;7.57;;;4.22;;
70216;SDS011;65567;55.684;37.570;2023-04-06T00:21:57;6.47;;;4.40;;
70216;SDS011;65567;55.684;37.570;2023-04-06T00:24:23;8.88;;;4.40;;
70216;SDS011;65567;55.684;37.570;2023-04-06T00:26:49;8.55;;;4.57;;
70216;SDS011;65567;55.684;37.570;2023-04-06T00:29:15;7.57;;;4.30;;
70216;SDS011;65567;55.684;37.570;2023-04-06T00:31:41;7.13;;;4.30;;
70216;SDS011;65567;55.684;37.570;2023-04-06T00:34:07;8.15;;;4.72;;
70216;SDS011;65567;55.684;37.570;2023-04-06T00:36:33;8.25;;;4.57;;
70216;SDS011;65567;55.684;37.570;2023-04-06T00:38:58;7.15;;;4.43;;
70216;SDS011;65567;55.684;37.570;2023-04-06T00:41:24;6.57;;;4.47;;
70216;SDS011;65567;55.684;37.570;2023-04-06T00:43:50;7.78;;;4.78;;
70216;SDS011;65567;55.684;37.570;2023-04-06T00:46:16;8.13;;;4.28;;
70216;SDS011;65567;55.684;37.570;2023-04-06T00:48:42;9.50;;;5.20;;
70216;SDS011;65567;55.684;37.570;2023-04-06T00:51:08;5.78;;;4.60;;
70216;SDS011;65567;55.684;37.570;2023-04-06T00:53:34;9.55;;;5.30;;
70216;SDS011;65567;55.684;37.570;2023-04-06T00:56:00;8.23;;;5.35;;
70216;SDS011;65567;55.684;37.570;2023-04-06T00:58:25;7.45;;;4.90;;
70216;SDS011;65567;55.684;37.570;2023-04-06T01:00:51;7.53;;;4.88;;
70216;SDS011;65567;55.684;37.570;2023-04-06T01:03:17;7.57;;;4.38;;
70216;SDS011;65567;55.684;37.570;2023-04-06T01:05:43;5.60;;;4.07;;
70216;SDS011;65567;55.684;37.570;2023-04-06T01:08:09;6.45;;;4.68;;
70216;SDS011;65567;55.684;37.570;2023-04-06T01:10:35;6.40;;;4.53;;
70216;SDS011;65567;55.684;37.570;2023-04-06T01:13:01;8.10;;;4.70;;
70216;SDS011;65567;55.684;37.570;2023-04-06T01:15:27;7.82;;;4.57;;
70216;SDS011;65567;55.684;37.570;2023-04-06T01:17:54;8.23;;;4.65;;
70216;SDS011;65567;55.684;37.570;2023-04-06T01:20:20;7.82;;;4.72;;
70216;SDS011;65567;55.684;37.570;2023-04-06T01:22:46;6.70;;;5.15;;
70216;SDS011;65567;55.684;37.570;2023-04-06T01:25:12;7.20;;;4.43;;
70216;SDS011;65567;55.684;37.570;2023-04-06T01:27:38;6.47;;;4.43;;
70216;SDS011;65567;55.684;37.570;2023-04-06T01:30:04;8.35;;;5.15;;
70216;SDS011;65567;55.684;37.570;2023-04-06T01:32:31;8.00;;;4.80;;
70216;SDS011;65567;55.684;37.570;2023-04-06T01:34:57;8.00;;;5.32;;
70216;SDS011;65567;55.684;37.570;2023-04-06T01:37:22;8.52;;;4.65;;
70216;SDS011;65567;55.684;37.570;2023-04-06T01:39:48;11.13;;;5.38;;
70216;SDS011;65567;55.684;37.570;2023-04-06T01:42:14;8.27;;;5.30;;
70216;SDS011;65567;55.684;37.570;2023-04-06T01:44:40;9.25;;;5.53;;
70216;SDS011;65567;55.684;37.570;2023-04-06T01:47:06;7.35;;;5.20;;
70216;SDS011;65567;55.684;37.570;2023-04-06T01:49:32;9.45;;;5.70;;
70216;SDS011;65567;55.684;37.570;2023-04-06T01:51:58;9.15;;;5.22;;
70216;SDS011;65567;55.684;37.570;2023-04-06T01:54:23;9.95;;;5.78;;
70216;SDS011;65567;55.684;37.570;2023-04-06T01:56:50;8.55;;;5.32;;
70216;SDS011;65567;55.684;37.570;2023-04-06T01:59:17;10.27;;;5.70;;
70216;SDS011;65567;55.684;37.570;2023-04-06T02:01:43;8.75;;;5.97;;
70216;SDS011;65567;55.684;37.570;2023-04-06T02:04:09;6.78;;;4.03;;
70216;SDS011;65567;55.684;37.570;2023-04-06T02:06:35;8.40;;;5.43;;
70216;SDS011;65567;55.684;37.570;2023-04-06T02:09:01;8.48;;;5.05;;
70216;SDS011;65567;55.684;37.570;2023-04-06T02:11:27;9.57;;;5.50;;
70216;SDS011;65567;55.684;37.570;2023-04-06T02:13:52;7.90;;;5.90;;
70216;SDS011;65567;55.684;37.570;2023-04-06T02:16:18;10.27;;;5.70;;
70216;SDS011;65567;55.684;37.570;2023-04-06T02:18:44;8.52;;;5.47;;
70216;SDS011;65567;55.684;37.570;2023-04-06T02:21:10;8.23;;;5.57;;
70216;SDS011;65567;55.684;37.570;2023-04-06T02:23:37;8.00;;;5.45;;
70216;SDS011;65567;55.684;37.570;2023-04-06T02:26:03;9.05;;;5.93;;
70216;SDS011;65567;55.684;37.570;2023-04-06T02:28:29;10.23;;;5.35;;
70216;SDS011;65567;55.684;37.570;2023-04-06T02:30:55;7.93;;;5.80;;
70216;SDS011;65567;55.684;37.570;2023-04-06T02:33:21;8.77;;;5.38;;
70216;SDS011;65567;55.684;37.570;2023-04-06T02:35:46;9.20;;;4.97;;
70216;SDS011;65567;55.684;37.570;2023-04-06T02:38:12;10.57;;;5.60;;
70216;SDS011;65567;55.684;37.570;2023-04-06T02:40:38;6.68;;;4.80;;
70216;SDS011;65567;55.684;37.570;2023-04-06T02:43:04;8.25;;;5.43;;
70216;SDS011;65567;55.684;37.570;2023-04-06T02:45:30;7.75;;;4.93;;
70216;SDS011;65567;55.684;37.570;2023-04-06T02:47:56;6.63;;;5.10;;
70216;SDS011;65567;55.684;37.570;2023-04-06T02:50:22;8.73;;;5.60;;
70216;SDS011;65567;55.684;37.570;2023-04-06T02:52:48;7.55;;;5.00;;
70216;SDS011;65567;55.684;37.570;2023-04-06T02:55:13;10.70;;;6.20;;
70216;SDS011;65567;55.684;37.570;2023-04-06T02:57:39;9.13;;;5.22;;
70216;SDS011;65567;55.684;37.570;2023-04-06T03:00:05;9.55;;;5.90;;
70216;SDS011;65567;55.684;37.570;2023-04-06T03:02:32;9.00;;;5.82;;
70216;SDS011;65567;55.684;37.570;2023-04-06T03:04:58;9.80;;;5.45;;
70216;SDS011;65567;55.684;37.570;2023-04-06T03:07:24;7.40;;;5.13;;
70216;SDS011;65567;55.684;37.570;2023-04-06T03:09:49;8.85;;;4.82;;
70216;SDS011;65567;55.684;37.570;2023-04-06T03:12:15;8.63;;;5.20;;
70216;SDS011;65567;55.684;37.570;2023-04-06T03:14:41;8.45;;;5.22;;
70216;SDS011;65567;55.684;37.570;2023-04-06T03:17:07;9.75;;;4.80;;
70216;SDS011;65567;55.684;37.570;2023-04-06T03:19:33;9.93;;;5.32;;
70216;SDS011;65567;55.684;37.570;2023-04-06T03:21:59;18.95;;;5.85;;
70216;SDS011;65567;55.684;37.570;2023-04-06T03:24:25;8.10;;;5.30;;
70216;SDS011;65567;55.684;37.570;2023-04-06T03:26:50;8.85;;;5.15;;
70216;SDS011;65567;55.684;37.570;2023-04-06T03:29:16;7.85;;;4.32;;
70216;SDS011;65567;55.684;37.570;2023-04-06T03:31:42;6.97;;;3.97;;
70216;SDS011;65567;55.684;37.570;2023-04-06T03:34:08;7.60;;;4.40;;
70216;SDS011;65567;55.684;37.570;2023-04-06T03:36:34;7.53;;;4.47;;
70216;SDS011;65567;55.684;37.570;2023-04-06T03:39:00;7.10;;;4.10;;
70216;SDS011;65567;55.684;37.570;2023-04-06T03:41:29;7.78;;;4.47;;
70216;SDS011;65567;55.684;37.570;2023-04-06T03:43:55;9.95;;;4.80;;
70216;SDS011;65567;55.684;37.570;2023-04-06T03:46:21;7.25;;;4.22;;
70216;SDS011;65567;55.684;37.570;2023-04-06T03:48:48;7.70;;;4.43;;
70216;SDS011;65567;55.684;37.570;2023-04-06T03:51:14;7.82;;;4.43;;
70216;SDS011;65567;55.684;37.570;2023-04-06T03:53:40;9.35;;;4.47;;
70216;SDS011;65567;55.684;37.570;2023-04-06T03:56:05;7.90;;;4.72;;
70216;SDS011;65567;55.684;37.570;2023-04-06T03:58:32;5.35;;;3.55;;
70216;SDS011;65567;55.684;37.570;2023-04-06T04:00:58;6.20;;;3.95;;
70216;SDS011;65567;55.684;37.570;2023-04-06T04:03:23;6.53;;;3.95;;
70216;SDS011;65567;55.684;37.570;2023-04-06T04:05:52;7.35;;;4.30;;
70216;SDS011;65567;55.684;37.570;2023-04-06T04:08:18;8.80;;;4.93;;
70216;SDS011;65567;55.684;37.570;2023-04-06T04:10:43;5.20;;;3.92;;
70216;SDS011;65567;55.684;37.570;2023-04-06T04:13:10;6.65;;;3.80;;
70216;SDS011;65567;55.684;37.570;2023-04-06T04:15:35;8.70;;;4.78;;
70216;SDS011;65567;55.684;37.570;2023-04-06T04:18:01;7.03;;;3.70;;
70216;SDS011;65567;55.684;37.570;2023-04-06T04:20:27;8.35;;;3.88;;
70216;SDS011;65567;55.684;37.570;2023-04-06T04:22:53;9.45;;;4.35;;
70216;SDS011;65567;55.684;37.570;2023-04-06T04:25:19;5.80;;;3.33;;
70216;SDS011;65567;55.684;37.570;2023-04-06T04:27:45;9.25;;;4.18;;
70216;SDS011;65567;55.684;37.570;2023-04-06T04:30:11;7.63;;;3.63;;
70216;SDS011;65567;55.684;37.570;2023-04-06T04:32:37;7.20;;;3.95;;
70216;SDS011;65567;55.684;37.570;2023-04-06T04:35:03;7.57;;;3.72;;
70216;SDS011;65567;55.684;37.570;2023-04-06T04:37:29;6.20;;;3.60;;
70216;SDS011;65567;55.684;37.570;2023-04-06T04:39:55;6.35;;;4.13;;
70216;SDS011;65567;55.684;37.570;2023-04-06T04:42:20;6.68;;;3.97;;
70216;SDS011;65567;55.684;37.570;2023-04-06T04:44:47;6.78;;;3.88;;
70216;SDS011;65567;55.684;37.570;2023-04-06T04:47:13;10.98;;;3.97;;
70216;SDS011;65567;55.684;37.570;2023-04-06T04:49:41;9.73;;;3.53;;
70216;SDS011;65567;55.684;37.570;2023-04-06T04:52:07;7.13;;;3.45;;
70216;SDS011;65567;55.684;37.570;2023-04-06T04:54:33;8.73;;;3.75;;
70216;SDS011;65567;55.684;37.570;2023-04-06T04:56:59;7.55;;;3.63;;
70216;SDS011;65567;55.684;37.570;2023-04-06T04:59:28;7.57;;;4.00;;
70216;SDS011;65567;55.684;37.570;2023-04-06T05:01:54;5.90;;;3.50;;
70216;SDS011;65567;55.684;37.570;2023-04-06T05:04:21;8.70;;;4.43;;
70216;SDS011;65567;55.684;37.570;2023-04-06T05:06:48;10.45;;;3.53;;
70216;SDS011;65567;55.684;37.570;2023-04-06T05:09:14;7.57;;;3.63;;
70216;SDS011;65567;55.684;37.570;2023-04-06T05:11:40;6.82;;;3.50;;
70216;SDS011;65567;55.684;37.570;2023-04-06T05:14:06;7.43;;;3.75;;
70216;SDS011;65567;55.684;37.570;2023-04-06T05:16:32;11.80;;;3.63;;
70216;SDS011;65567;55.684;37.570;2023-04-06T05:18:59;6.15;;;3.55;;
70216;SDS011;65567;55.684;37.570;2023-04-06T05:21:25;10.48;;;3.70;;
70216;SDS011;65567;55.684;37.570;2023-04-06T05:23:52;11.02;;;3.88;;
70216;SDS011;65567;55.684;37.570;2023-04-06T05:26:19;4.93;;;3.60;;
70216;SDS011;65567;55.684;37.570;2023-04-06T05:28:45;6.70;;;3.85;;
70216;SDS011;65567;55.684;37.570;2023-04-06T05:31:11;8.75;;;3.70;;
70216;SDS011;65567;55.684;37.570;2023-04-06T05:33:36;11.82;;;3.85;;
70216;SDS011;65567;55.684;37.570;2023-04-06T05:36:02;6.55;;;3.67;;
70216;SDS011;65567;55.684;37.570;2023-04-06T05:38:30;7.80;;;3.88;;
70216;SDS011;65567;55.684;37.570;2023-04-06T05:40:58;6.82;;;3.95;;
70216;SDS011;65567;55.684;37.570;2023-04-06T05:43:24;5.43;;;3.55;;
70216;SDS011;65567;55.684;37.570;2023-04-06T05:45:50;8.52;;;4.18;;
70216;SDS011;65567;55.684;37.570;2023-04-06T05:48:16;9.70;;;4.13;;
70216;SDS011;65567;55.684;37.570;2023-04-06T05:50:42;10.63;;;4.20;;
70216;SDS011;65567;55.684;37.570;2023-04-06T05:53:08;9.07;;;4.30;;
70216;SDS011;65567;55.684;37.570;2023-04-06T05:55:33;7.70;;;4.35;;
70216;SDS011;65567;55.684;37.570;2023-04-06T05:57:59;10.38;;;4.50;;
70216;SDS011;65567;55.684;37.570;2023-04-06T06:00:25;10.25;;;4.72;;
70216;SDS011;65567;55.684;37.570;2023-04-06T06:02:51;10.35;;;4.38;;
70216;SDS011;65567;55.684;37.570;2023-04-06T06:05:17;8.63;;;4.40;;
70216;SDS011;65567;55.684;37.570;2023-04-06T06:07:43;9.30;;;3.90;;
70216;SDS011;65567;55.684;37.570;2023-04-06T06:10:09;8.90;;;4.13;;
70216;SDS011;65567;55.684;37.570;2023-04-06T06:12:35;8.05;;;4.38;;
70216;SDS011;65567;55.684;37.570;2023-04-06T06:15:01;8.80;;;4.50;;
70216;SDS011;65567;55.684;37.570;2023-04-06T06:17:27;8.10;;;4.13;;
70216;SDS011;65567;55.684;37.570;2023-04-06T06:19:53;7.40;;;3.88;;
70216;SDS011;65567;55.684;37.570;2023-04-06T06:22:20;10.57;;;4.32;;
70216;SDS011;65567;55.684;37.570;2023-04-06T06:24:46;11.10;;;4.53;;
70216;SDS011;65567;55.684;37.570;2023-04-06T06:27:11;11.27;;;4.45;;
70216;SDS011;65567;55.684;37.570;2023-04-06T06:29:37;7.63;;;4.18;;
70216;SDS011;65567;55.684;37.570;2023-04-06T06:32:03;9.57;;;4.13;;
70216;SDS011;65567;55.684;37.570;2023-04-06T06:34:29;6.95;;;3.80;;
70216;SDS011;65567;55.684;37.570;2023-04-06T06:36:55;8.38;;;4.10;;
70216;SDS011;65567;55.684;37.570;2023-04-06T06:39:21;7.20;;;4.00;;
70216;SDS011;65567;55.684;37.570;2023-04-06T06:41:47;6.07;;;3.30;;
70216;SDS011;65567;55.684;37.570;2023-04-06T06:44:13;11.52;;;3.97;;
70216;SDS011;65567;55.684;37.570;2023-04-06T06:46:39;10.00;;;3.10;;
70216;SDS011;65567;55.684;37.570;2023-04-06T06:49:05;8.00;;;3.60;;
70216;SDS011;65567;55.684;37.570;2023-04-06T06:51:31;8.38;;;3.72;;
70216;SDS011;65567;55.684;37.570;2023-04-06T06:53:57;8.93;;;3.38;;
70216;SDS011;65567;55.684;37.570;2023-04-06T06:56:23;8.85;;;3.50;;
70216;SDS011;65567;55.684;37.570;2023-04-06T06:58:49;8.90;;;4.30;;
70216;SDS011;65567;55.684;37.570;2023-04-06T07:01:15;11.35;;;3.50;;
70216;SDS011;65567;55.684;37.570;2023-04-06T07:03:40;7.78;;;3.97;;
70216;SDS011;65567;55.684;37.570;2023-04-06T07:06:06;6.18;;;3.63;;
70216;SDS011;65567;55.684;37.570;2023-04-06T07:08:32;12.00;;;3.78;;
70216;SDS011;65567;55.684;37.570;2023-04-06T07:10:58;10.30;;;3.90;;
70216;SDS011;65567;55.684;37.570;2023-04-06T07:13:24;12.07;;;4.28;;
70216;SDS011;65567;55.684;37.570;2023-04-06T07:15:52;10.73;;;3.60;;
70216;SDS011;65567;55.684;37.570;2023-04-06T07:18:19;10.35;;;4.18;;
70216;SDS011;65567;55.684;37.570;2023-04-06T07:20:45;12.93;;;4.32;;
70216;SDS011;65567;55.684;37.570;2023-04-06T07:23:11;8.15;;;3.83;;
70216;SDS011;65567;55.684;37.570;2023-04-06T07:25:37;11.50;;;4.00;;
70216;SDS011;65567;55.684;37.570;2023-04-06T07:28:03;11.68;;;3.75;;
70216;SDS011;65567;55.684;37.570;2023-04-06T07:30:29;9.77;;;3.80;;
70216;SDS011;65567;55.684;37.570;2023-04-06T07:32:56;11.32;;;3.35;;
70216;SDS011;65567;55.684;37.570;2023-04-06T07:35:26;12.00;;;4.50;;
70216;SDS011;65567;55.684;37.570;2023-04-06T07:37:53;8.55;;;3.95;;
70216;SDS011;65567;55.684;37.570;2023-04-06T07:40:19;6.80;;;3.55;;
70216;SDS011;65567;55.684;37.570;2023-04-06T07:42:46;8.52;;;3.72;;
70216;SDS011;65567;55.684;37.570;2023-04-06T07:45:11;10.73;;;3.30;;
70216;SDS011;65567;55.684;37.570;2023-04-06T07:47:37;13.55;;;3.85;;
70216;SDS011;65567;55.684;37.570;2023-04-06T07:50:03;9.32;;;3.58;;
70216;SDS011;65567;55.684;37.570;2023-04-06T07:52:30;8.45;;;3.17;;
70216;SDS011;65567;55.684;37.570;2023-04-06T07:54:58;8.98;;;3.55;;
70216;SDS011;65567;55.684;37.570;2023-04-06T07:57:27;7.40;;;3.85;;
70216;SDS011;65567;55.684;37.570;2023-04-06T07:59:53;13.18;;;4.03;;
70216;SDS011;65567;55.684;37.570;2023-04-06T08:02:18;8.43;;;3.47;;
70216;SDS011;65567;55.684;37.570;2023-04-06T08:04:44;8.63;;;3.45;;
70216;SDS011;65567;55.684;37.570;2023-04-06T08:07:10;9.73;;;3.17;;
70216;SDS011;65567;55.684;37.570;2023-04-06T08:09:37;6.85;;;3.00;;
70216;SDS011;65567;55.684;37.570;2023-04-06T08:12:03;9.02;;;3.20;;
70216;SDS011;65567;55.684;37.570;2023-04-06T08:14:29;9.57;;;3.85;;
70216;SDS011;65567;55.684;37.570;2023-04-06T08:16:55;9.50;;;3.47;;
70216;SDS011;65567;55.684;37.570;2023-04-06T08:19:21;11.70;;;3.17;;
70216;SDS011;65567;55.684;37.570;2023-04-06T08:21:47;12.73;;;3.47;;
70216;SDS011;65567;55.684;37.570;2023-04-06T08:24:13;7.05;;;3.35;;
70216;SDS011;65567;55.684;37.570;2023-04-06T08:26:39;9.55;;;2.45;;
70216;SDS011;65567;55.684;37.570;2023-04-06T08:29:06;7.07;;;2.30;;
70216;SDS011;65567;55.684;37.570;2023-04-06T08:31:35;8.57;;;2.40;;
70216;SDS011;65567;55.684;37.570;2023-04-06T08:34:02;15.15;;;2.55;;
70216;SDS011;65567;55.684;37.570;2023-04-06T08:36:29;9.05;;;2.35;;
70216;SDS011;65567;55.684;37.570;2023-04-06T08:38:56;8.25;;;2.83;;
70216;SDS011;65567;55.684;37.570;2023-04-06T08:41:22;6.22;;;2.53;;
70216;SDS011;65567;55.684;37.570;2023-04-06T08:44:00;6.63;;;2.45;;
70216;SDS011;65567;55.684;37.570;2023-04-06T08:46:31;7.63;;;2.15;;
70216;SDS011;65567;55.684;37.570;2023-04-06T08:49:00;7.50;;;2.42;;
70216;SDS011;65567;55.684;37.570;2023-04-06T08:51:28;7.55;;;2.72;;
70216;SDS011;65567;55.684;37.570;2023-04-06T08:53:56;12.25;;;3.20;;
70216;SDS011;65567;55.684;37.570;2023-04-06T08:56:23;13.38;;;2.88;;
70216;SDS011;65567;55.684;37.570;2023-04-06T08:58:50;9.48;;;2.40;;
70216;SDS011;65567;55.684;37.570;2023-04-06T09:01:20;11.30;;;2.53;;
70216;SDS011;65567;55.684;37.570;2023-04-06T09:03:48;10.32;;;2.70;;
70216;SDS011;65567;55.684;37.570;2023-04-06T09:06:16;8.93;;;2.35;;
70216;SDS011;65567;55.684;37.570;2023-04-06T09:08:42;11.63;;;2.53;;
70216;SDS011;65567;55.684;37.570;2023-04-06T09:11:08;14.63;;;2.78;;
70216;SDS011;65567;55.684;37.570;2023-04-06T09:13:47;7.63;;;2.75;;
70216;SDS011;65567;55.684;37.570;2023-04-06T09:16:18;9.90;;;3.22;;
70216;SDS011;65567;55.684;37.570;2023-04-06T09:18:44;6.72;;;2.28;;
70216;SDS011;65567;55.684;37.570;2023-04-06T09:21:11;9.00;;;2.88;;
70216;SDS011;65567;55.684;37.570;2023-04-06T09:23:38;12.73;;;2.80;;
70216;SDS011;65567;55.684;37.570;2023-04-06T09:26:05;11.10;;;3.17;;
70216;SDS011;65567;55.684;37.570;2023-04-06T09:31:12;13.43;;;3.22;;
70216;SDS011;65567;55.684;37.570;2023-04-06T09:33:44;11.25;;;3.22;;
70216;SDS011;65567;55.684;37.570;2023-04-06T09:36:11;8.23;;;3.10;;
70216;SDS011;65567;55.684;37.570;2023-04-06T09:38:50;10.88;;;2.95;;
70216;SDS011;65567;55.684;37.570;2023-04-06T09:41:21;11.30;;;3.55;;
70216;SDS011;65567;55.684;37.570;2023-04-06T09:43:51;9.32;;;3.28;;
70216;SDS011;65567;55.684;37.570;2023-04-06T09:46:26;13.57;;;3.63;;
70216;SDS011;65567;55.684;37.570;2023-04-06T09:48:56;12.38;;;3.67;;
70216;SDS011;65567;55.684;37.570;2023-04-06T09:51:22;10.20;;;3.33;;
70216;SDS011;65567;55.684;37.570;2023-04-06T09:53:53;8.55;;;2.88;;
70216;SDS011;65567;55.684;37.570;2023-04-06T09:56:26;7.13;;;2.42;;
70216;SDS011;65567;55.684;37.570;2023-04-06T09:58:57;10.88;;;2.45;;
70216;SDS011;65567;55.684;37.570;2023-04-06T10:01:29;9.80;;;3.00;;
70216;SDS011;65567;55.684;37.570;2023-04-06T10:04:10;11.98;;;2.85;;
70216;SDS011;65567;55.684;37.570;2023-04-06T10:06:46;11.88;;;2.85;;
70216;SDS011;65567;55.684;37.570;2023-04-06T10:09:18;14.50;;;2.90;;
70216;SDS011;65567;55.684;37.570;2023-04-06T10:11:46;6.15;;;1.95;;
70216;SDS011;65567;55.684;37.570;2023-04-06T10:14:14;13.48;;;2.78;;
70216;SDS011;65567;55.684;37.570;2023-04-06T10:16:41;9.07;;;2.78;;
70216;SDS011;65567;55.684;37.570;2023-04-06T10:19:17;5.75;;;2.22;;
70216;SDS011;65567;55.684;37.570;2023-04-06T10:21:48;9.37;;;2.70;;
70216;SDS011;65567;55.684;37.570;2023-04-06T10:24:20;4.82;;;2.63;;
70216;SDS011;65567;55.684;37.570;2023-04-06T10:27:00;8.73;;;2.67;;
70216;SDS011;65567;55.684;37.570;2023-04-06T10:29:27;9.40;;;2.60;;
70216;SDS011;65567;55.684;37.570;2023-04-06T10:31:53;6.72;;;2.58;;
70216;SDS011;65567;55.684;37.570;2023-04-06T10:34:20;7.22;;;2.35;;
70216;SDS011;65567;55.684;37.570;2023-04-06T10:36:46;13.00;;;2.92;;
70216;SDS011;65567;55.684;37.570;2023-04-06T10:39:12;10.60;;;2.60;;
70216;SDS011;65567;55.684;37.570;2023-04-06T10:41:42;11.00;;;3.15;;
70216;SDS011;65567;55.684;37.570;2023-04-06T10:44:22;8.32;;;2.42;;
70216;SDS011;65567;55.684;37.570;2023-04-06T10:46:53;6.80;;;2.60;;
70216;SDS011;65567;55.684;37.570;2023-04-06T10:49:21;6.32;;;2.13;;
70216;SDS011;65567;55.684;37.570;2023-04-06T10:51:51;7.50;;;2.65;;
70216;SDS011;65567;55.684;37.570;2023-04-06T10:54:21;10.65;;;2.10;;
70216;SDS011;65567;55.684;37.570;2023-04-06T10:56:49;4.38;;;2.10;;
70216;SDS011;65567;55.684;37.570;2023-04-06T10:59:23;9.68;;;3.13;;
70216;SDS011;65567;55.684;37.570;2023-04-06T11:01:50;9.45;;;2.67;;
70216;SDS011;65567;55.684;37.570;2023-04-06T11:04:17;13.65;;;3.25;;
70216;SDS011;65567;55.684;37.570;2023-04-06T11:06:47;9.15;;;2.70;;
70216;SDS011;65567;55.684;37.570;2023-04-06T11:09:26;7.07;;;2.10;;
70216;SDS011;65567;55.684;37.570;2023-04-06T11:11:54;10.75;;;2.35;;
70216;SDS011;65567;55.684;37.570;2023-04-06T11:14:21;8.32;;;2.03;;
70216;SDS011;65567;55.684;37.570;2023-04-06T11:16:47;8.32;;;2.55;;
70216;SDS011;65567;55.684;37.570;2023-04-06T11:19:15;9.38;;;2.60;;
70216;SDS011;65567;55.684;37.570;2023-04-06T11:21:45;5.65;;;2.47;;
70216;SDS011;65567;55.684;37.570;2023-04-06T11:24:17;6.72;;;2.45;;
70216;SDS011;65567;55.684;37.570;2023-04-06T11:26:46;7.80;;;2.30;;
70216;SDS011;65567;55.684;37.570;2023-04-06T11:29:23;7.22;;;2.50;;
70216;SDS011;65567;55.684;37.570;2023-04-06T11:34:23;10.27;;;2.50;;
70216;SDS011;65567;55.684;37.570;2023-04-06T11:37:00;4.85;;;2.15;;
70216;SDS011;65567;55.684;37.570;2023-04-06T11:39:28;9.40;;;2.38;;
70216;SDS011;65567;55.684;37.570;2023-04-06T11:41:59;9.00;;;2.38;;
70216;SDS011;65567;55.684;37.570;2023-04-06T11:44:39;10.25;;;2.40;;
70216;SDS011;65567;55.684;37.570;2023-04-06T11:47:10;13.52;;;2.30;;
70216;SDS011;65567;55.684;37.570;2023-04-06T11:49:38;10.25;;;2.42;;
70216;SDS011;65567;55.684;37.570;2023-04-06T11:52:18;4.60;;;1.88;;
70216;SDS011;65567;55.684;37.570;2023-04-06T11:54:47;8.50;;;2.33;;
70216;SDS011;65567;55.684;37.570;2023-04-06T11:57:15;7.38;;;2.58;;
70216;SDS011;65567;55.684;37.570;2023-04-06T11:59:44;12.63;;;2.70;;
70216;SDS011;65567;55.684;37.570;2023-04-06T12:02:10;10.27;;;2.38;;
70216;SDS011;65567;55.684;37.570;2023-04-06T12:04:36;8.02;;;2.35;;
70216;SDS011;65567;55.684;37.570;2023-04-06T12:07:03;5.93;;;2.00;;
70216;SDS011;65567;55.684;37.570;2023-04-06T12:09:29;9.70;;;2.13;;
70216;SDS011;65567;55.684;37.570;2023-04-06T12:11:56;9.63;;;1.90;;
70216;SDS011;65567;55.684;37.570;2023-04-06T12:14:22;6.78;;;2.08;;
70216;SDS011;65567;55.684;37.570;2023-04-06T12:16:48;8.35;;;2.28;;
70216;SDS011;65567;55.684;37.570;2023-04-06T12:19:17;6.05;;;2.40;;
70216;SDS011;65567;55.684;37.570;2023-04-06T12:21:43;6.95;;;2.40;;
70216;SDS011;65567;55.684;37.570;2023-04-06T12:24:09;9.63;;;2.60;;
70216;SDS011;65567;55.684;37.570;2023-04-06T12:26:35;12.30;;;3.00;;
70216;SDS011;65567;55.684;37.570;2023-04-06T12:29:02;5.35;;;2.10;;
70216;SDS011;65567;55.684;37.570;2023-04-06T12:31:38;12.05;;;2.30;;
70216;SDS011;65567;55.684;37.570;2023-04-06T12:34:06;10.02;;;2.50;;
70216;SDS011;65567;55.684;37.570;2023-04-06T12:36:32;6.57;;;2.13;;
70216;SDS011;65567;55.684;37.570;2023-04-06T12:38:59;8.55;;;2.30;;
70216;SDS011;65567;55.684;37.570;2023-04-06T12:41:28;8.60;;;2.75;;
70216;SDS011;65567;55.684;37.570;2023-04-06T12:43:55;9.52;;;2.22;;
70216;SDS011;65567;55.684;37.570;2023-04-06T12:46:21;8.13;;;2.20;;
70216;SDS011;65567;55.684;37.570;2023-04-06T12:48:53;6.72;;;2.35;;
70216;SDS011;65567;55.684;37.570;2023-04-06T12:51:20;10.77;;;1.92;;
70216;SDS011;65567;55.684;37.570;2023-04-06T12:53:46;8.43;;;2.08;;
70216;SDS011;65567;55.684;37.570;2023-04-06T12:56:16;7.38;;;2.35;;
70216;SDS011;65567;55.684;37.570;2023-04-06T12:58:43;6.80;;;2.00;;
70216;SDS011;65567;55.684;37.570;2023-04-06T13:01:10;6.63;;;2.42;;
70216;SDS011;65567;55.684;37.570;2023-04-06T13:03:40;6.82;;;2.40;;
70216;SDS011;65567;55.684;37.570;2023-04-06T13:06:06;13.30;;;3.35;;
70216;SDS011;65567;55.684;37.570;2023-04-06T13:08:36;8.90;;;2.05;;
70216;SDS011;65567;55.684;37.570;2023-04-06T13:11:03;6.95;;;2.10;;
70216;SDS011;65567;55.684;37.570;2023-04-06T13:13:30;8.40;;;2.72;;
70216;SDS011;65567;55.684;37.570;2023-04-06T13:16:03;6.68;;;1.88;;
70216;SDS011;65567;55.684;37.570;2023-04-06T13:18:31;6.00;;;1.83;;
70216;SDS011;65567;55.684;37.570;2023-04-06T13:20:57;5.70;;;2.08;;
70216;SDS011;65567;55.684;37.570;2023-04-06T13:23:24;6.25;;;1.88;;
70216;SDS011;65567;55.684;37.570;2023-04-06T13:25:58;8.93;;;2.10;;
70216;SDS011;65567;55.684;37.570;2023-04-06T13:28:28;5.93;;;2.10;;
70216;SDS011;65567;55.684;37.570;2023-04-06T13:30:55;6.60;;;1.90;;
70216;SDS011;65567;55.684;37.570;2023-04-06T13:33:23;7.03;;;1.90;;
70216;SDS011;65567;55.684;37.570;2023-04-06T13:35:49;6.63;;;1.88;;
70216;SDS011;65567;55.684;37.570;2023-04-06T13:38:14;6.38;;;1.58;;
70216;SDS011;65567;55.684;37.570;2023-04-06T13:40:41;3.40;;;1.67;;
70216;SDS011;65567;55.684;37.570;2023-04-06T13:43:08;3.33;;;1.80;;
70216;SDS011;65567;55.684;37.570;2023-04-06T13:45:34;5.50;;;1.67;;
70216;SDS011;65567;55.684;37.570;2023-04-06T13:48:03;7.88;;;1.92;;
70216;SDS011;65567;55.684;37.570;2023-04-06T13:50:29;8.45;;;2.60;;
70216;SDS011;65567;55.684;37.570;2023-04-06T13:52:55;5.40;;;1.70;;
70216;SDS011;65567;55.684;37.570;2023-04-06T13:55:21;6.57;;;1.83;;
70216;SDS011;65567;55.684;37.570;2023-04-06T13:57:49;8.38;;;1.88;;
70216;SDS011;65567;55.684;37.570;2023-04-06T14:00:19;4.75;;;1.48;;
70216;SDS011;65567;55.684;37.570;2023-04-06T14:02:45;9.55;;;2.00;;
70216;SDS011;65567;55.684;37.570;2023-04-06T14:05:11;6.63;;;2.78;;
70216;SDS011;65567;55.684;37.570;2023-04-06T14:07:37;8.95;;;1.80;;
70216;SDS011;65567;55.684;37.570;2023-04-06T14:10:03;7.85;;;1.70;;
70216;SDS011;65567;55.684;37.570;2023-04-06T14:12:29;5.95;;;2.03;;
70216;SDS011;65567;55.684;37.570;2023-04-06T14:14:56;4.70;;;1.65;;
70216;SDS011;65567;55.684;37.570;2023-04-06T14:17:22;9.43;;;1.60;;
70216;SDS011;65567;55.684;37.570;2023-04-06T14:19:48;4.00;;;1.50;;
70216;SDS011;65567;55.684;37.570;2023-04-06T14:22:14;4.30;;;1.40;;
70216;SDS011;65567;55.684;37.570;2023-04-06T14:24:40;11.93;;;1.70;;
70216;SDS011;65567;55.684;37.570;2023-04-06T14:27:06;3.17;;;1.40;;
70216;SDS011;65567;55.684;37.570;2023-04-06T14:29:33;3.58;;;1.48;;
70216;SDS011;65567;55.684;37.570;2023-04-06T14:31:59;7.90;;;1.55;;
70216;SDS011;65567;55.684;37.570;2023-04-06T14:34:25;5.93;;;1.33;;